sensor_id;sensor_type;location;lat;lon;timestamp;P1;P2;P0
28026;PMS5003;15344;52.342;-1.290;2023-09-18T00:01:25;57;46;
28026;PMS5003;15344;52.342;-1.290;2023-09-18T00:03:51;56;45;
28026;PMS5003;15344;52.342;-1.290;2023-09-18T00:06:16;51;46;
28026;PMS5003;15344;52.342;-1.290;2023-09-18T00:08:42;51;39;
28026;PMS5003;15344;52.342;-1.290;2023-09-18T00:11:08;56;44;
28026;PMS5003;15344;52.342;-1.290;2023-09-18T00:13:33;49;41;
28026;PMS5003;15344;52.342;-1.290;2023-09-18T00:15:58;51;43;
28026;PMS5003;15344;52.342;-1.290;2023-09-18T00:18:24;62;51;
28026;PMS5003;15344;52.342;-1.290;2023-09-18T00:20:50;54;46;
28026;PMS5003;15344;52.342;-1.290;2023-09-18T00:23:15;54;44;
28026;PMS5003;15344;52.342;-1.290;2023-09-18T00:25:41;49;44;
28026;PMS5003;15344;52.342;-1.290;2023-09-18T00:28:07;48;43;
28026;PMS5003;15344;52.342;-1.290;2023-09-18T00:30:32;51;45;
28026;PMS5003;15344;52.342;-1.290;2023-09-18T00:32:58;54;47;
28026;PMS5003;15344;52.342;-1.290;2023-09-18T00:35:24;50;44;
28026;PMS5003;15344;52.342;-1.290;2023-09-18T00:37:49;58;47;
28026;PMS5003;15344;52.342;-1.290;2023-09-18T00:40:15;51;49;
28026;PMS5003;15344;52.342;-1.290;2023-09-18T00:42:40;49;45;
28026;PMS5003;15344;52.342;-1.290;2023-09-18T00:45:06;56;49;
28026;PMS5003;15344;52.342;-1.290;2023-09-18T00:47:31;60;50;
28026;PMS5003;15344;52.342;-1.290;2023-09-18T00:49:55;49;46;
28026;PMS5003;15344;52.342;-1.290;2023-09-18T00:52:20;58;49;
28026;PMS5003;15344;52.342;-1.290;2023-09-18T00:54:46;50;45;
28026;PMS5003;15344;52.342;-1.290;2023-09-18T00:57:11;53;48;
28026;PMS5003;15344;52.342;-1.290;2023-09-18T00:59:37;59;49;
28026;PMS5003;15344;52.342;-1.290;2023-09-18T01:02:03;52;44;
28026;PMS5003;15344;52.342;-1.290;2023-09-18T01:04:28;53;43;
28026;PMS5003;15344;52.342;-1.290;2023-09-18T01:06:53;48;40;
28026;PMS5003;15344;52.342;-1.290;2023-09-18T01:09:18;62;54;
28026;PMS5003;15344;52.342;-1.290;2023-09-18T01:11:46;53;46;
28026;PMS5003;15344;52.342;-1.290;2023-09-18T01:14:09;44;38;
28026;PMS5003;15344;52.342;-1.290;2023-09-18T01:16:36;55;46;
28026;PMS5003;15344;52.342;-1.290;2023-09-18T01:18:59;51;44;
28026;PMS5003;15344;52.342;-1.290;2023-09-18T01:21:24;45;40;
28026;PMS5003;15344;52.342;-1.290;2023-09-18T01:23:50;52;45;
28026;PMS5003;15344;52.342;-1.290;2023-09-18T01:26:16;48;44;
28026;PMS5003;15344;52.342;-1.290;2023-09-18T01:28:41;49;42;
28026;PMS5003;15344;52.342;-1.290;2023-09-18T01:31:06;58;46;
28026;PMS5003;15344;52.342;-1.290;2023-09-18T01:33:32;55;49;
28026;PMS5003;15344;52.342;-1.290;2023-09-18T01:35:58;50;46;
28026;PMS5003;15344;52.342;-1.290;2023-09-18T01:38:23;55;45;
28026;PMS5003;15344;52.342;-1.290;2023-09-18T01:40:49;50;44;
28026;PMS5003;15344;52.342;-1.290;2023-09-18T01:43:14;55;46;
28026;PMS5003;15344;52.342;-1.290;2023-09-18T01:45:40;43;36;
28026;PMS5003;15344;52.342;-1.290;2023-09-18T01:48:06;46;37;
28026;PMS5003;15344;52.342;-1.290;2023-09-18T01:50:31;50;40;
28026;PMS5003;15344;52.342;-1.290;2023-09-18T01:52:58;49;40;
28026;PMS5003;15344;52.342;-1.290;2023-09-18T01:55:22;49;42;
28026;PMS5003;15344;52.342;-1.290;2023-09-18T01:57:47;40;38;
28026;PMS5003;15344;52.342;-1.290;2023-09-18T02:00:13;48;43;
28026;PMS5003;15344;52.342;-1.290;2023-09-18T02:02:38;54;42;
28026;PMS5003;15344;52.342;-1.290;2023-09-18T02:05:04;47;39;
28026;PMS5003;15344;52.342;-1.290;2023-09-18T02:07:29;37;31;
28026;PMS5003;15344;52.342;-1.290;2023-09-18T02:09:55;31;24;
28026;PMS5003;15344;52.342;-1.290;2023-09-18T02:12:21;25;25;
28026;PMS5003;15344;52.342;-1.290;2023-09-18T02:14:46;31;26;
28026;PMS5003;15344;52.342;-1.290;2023-09-18T02:17:12;20;18;
28026;PMS5003;15344;52.342;-1.290;2023-09-18T02:19:37;23;18;
28026;PMS5003;15344;52.342;-1.290;2023-09-18T02:22:03;19;18;
28026;PMS5003;15344;52.342;-1.290;2023-09-18T02:24:28;24;19;
28026;PMS5003;15344;52.342;-1.290;2023-09-18T02:26:54;20;18;
28026;PMS5003;15344;52.342;-1.290;2023-09-18T02:29:19;14;13;
28026;PMS5003;15344;52.342;-1.290;2023-09-18T02:31:44;23;19;
28026;PMS5003;15344;52.342;-1.290;2023-09-18T02:34:10;23;21;
28026;PMS5003;15344;52.342;-1.290;2023-09-18T02:36:35;20;17;
28026;PMS5003;15344;52.342;-1.290;2023-09-18T02:39:01;13;13;
28026;PMS5003;15344;52.342;-1.290;2023-09-18T02:41:26;16;14;
28026;PMS5003;15344;52.342;-1.290;2023-09-18T02:43:52;13;13;
28026;PMS5003;15344;52.342;-1.290;2023-09-18T02:46:18;17;15;
28026;PMS5003;15344;52.342;-1.290;2023-09-18T02:48:44;20;17;
28026;PMS5003;15344;52.342;-1.290;2023-09-18T02:51:09;18;16;
28026;PMS5003;15344;52.342;-1.290;2023-09-18T02:53:35;17;14;
28026;PMS5003;15344;52.342;-1.290;2023-09-18T02:56:01;19;14;
28026;PMS5003;15344;52.342;-1.290;2023-09-18T02:58:26;18;16;
28026;PMS5003;15344;52.342;-1.290;2023-09-18T03:00:52;9;8;
28026;PMS5003;15344;52.342;-1.290;2023-09-18T03:03:17;5;5;
28026;PMS5003;15344;52.342;-1.290;2023-09-18T03:05:43;2;2;
28026;PMS5003;15344;52.342;-1.290;2023-09-18T03:08:07;3;3;
28026;PMS5003;15344;52.342;-1.290;2023-09-18T03:10:33;4;3;
28026;PMS5003;15344;52.342;-1.290;2023-09-18T03:12:58;3;3;
28026;PMS5003;15344;52.342;-1.290;2023-09-18T03:15:22;3;3;
28026;PMS5003;15344;52.342;-1.290;2023-09-18T03:17:49;1;1;
28026;PMS5003;15344;52.342;-1.290;2023-09-18T03:20:13;0;0;
28026;PMS5003;15344;52.342;-1.290;2023-09-18T03:22:38;1;1;
28026;PMS5003;15344;52.342;-1.290;2023-09-18T03:25:03;2;2;
28026;PMS5003;15344;52.342;-1.290;2023-09-18T03:27:28;2;2;
28026;PMS5003;15344;52.342;-1.290;2023-09-18T03:29:53;2;2;
28026;PMS5003;15344;52.342;-1.290;2023-09-18T03:32:18;1;1;
28026;PMS5003;15344;52.342;-1.290;2023-09-18T03:34:43;4;1;
28026;PMS5003;15344;52.342;-1.290;2023-09-18T03:37:08;2;2;
28026;PMS5003;15344;52.342;-1.290;2023-09-18T03:39:34;2;0;
28026;PMS5003;15344;52.342;-1.290;2023-09-18T03:41:59;3;2;
28026;PMS5003;15344;52.342;-1.290;2023-09-18T03:44:24;1;1;
28026;PMS5003;15344;52.342;-1.290;2023-09-18T03:46:49;1;1;
28026;PMS5003;15344;52.342;-1.290;2023-09-18T03:49:14;3;2;
28026;PMS5003;15344;52.342;-1.290;2023-09-18T03:51:39;2;2;
28026;PMS5003;15344;52.342;-1.290;2023-09-18T03:54:04;4;1;
28026;PMS5003;15344;52.342;-1.290;2023-09-18T03:56:29;2;2;
28026;PMS5003;15344;52.342;-1.290;2023-09-18T03:58:55;3;2;
28026;PMS5003;15344;52.342;-1.290;2023-09-18T04:01:20;2;2;
28026;PMS5003;15344;52.342;-1.290;2023-09-18T04:03:45;2;2;
28026;PMS5003;15344;52.342;-1.290;2023-09-18T04:06:10;3;2;
28026;PMS5003;15344;52.342;-1.290;2023-09-18T04:08:35;2;2;
28026;PMS5003;15344;52.342;-1.290;2023-09-18T04:11:00;1;1;
28026;PMS5003;15344;52.342;-1.290;2023-09-18T04:13:27;2;2;
28026;PMS5003;15344;52.342;-1.290;2023-09-18T04:15:51;1;1;
28026;PMS5003;15344;52.342;-1.290;2023-09-18T04:18:16;1;1;
28026;PMS5003;15344;52.342;-1.290;2023-09-18T04:20:41;2;2;
28026;PMS5003;15344;52.342;-1.290;2023-09-18T04:25:31;2;2;
28026;PMS5003;15344;52.342;-1.290;2023-09-18T04:27:56;2;2;
28026;PMS5003;15344;52.342;-1.290;2023-09-18T04:30:21;2;2;
28026;PMS5003;15344;52.342;-1.290;2023-09-18T04:32:47;3;3;
28026;PMS5003;15344;52.342;-1.290;2023-09-18T04:35:12;3;1;
28026;PMS5003;15344;52.342;-1.290;2023-09-18T04:37:37;1;1;
28026;PMS5003;15344;52.342;-1.290;2023-09-18T04:40:02;1;1;
28026;PMS5003;15344;52.342;-1.290;2023-09-18T04:42:27;1;1;
28026;PMS5003;15344;52.342;-1.290;2023-09-18T04:44:52;2;2;
28026;PMS5003;15344;52.342;-1.290;2023-09-18T04:47:17;3;2;
28026;PMS5003;15344;52.342;-1.290;2023-09-18T04:49:43;3;3;
28026;PMS5003;15344;52.342;-1.290;2023-09-18T04:52:08;1;1;
28026;PMS5003;15344;52.342;-1.290;2023-09-18T04:54:33;2;1;
28026;PMS5003;15344;52.342;-1.290;2023-09-18T04:56:58;1;1;
28026;PMS5003;15344;52.342;-1.290;2023-09-18T04:59:23;3;1;
28026;PMS5003;15344;52.342;-1.290;2023-09-18T05:01:48;1;1;
28026;PMS5003;15344;52.342;-1.290;2023-09-18T05:04:13;2;2;
28026;PMS5003;15344;52.342;-1.290;2023-09-18T05:06:39;1;1;
28026;PMS5003;15344;52.342;-1.290;2023-09-18T05:09:04;2;2;
28026;PMS5003;15344;52.342;-1.290;2023-09-18T05:11:29;2;2;
28026;PMS5003;15344;52.342;-1.290;2023-09-18T05:13:54;1;1;
28026;PMS5003;15344;52.342;-1.290;2023-09-18T05:16:19;1;1;
28026;PMS5003;15344;52.342;-1.290;2023-09-18T05:18:44;0;0;
28026;PMS5003;15344;52.342;-1.290;2023-09-18T05:21:10;0;0;
28026;PMS5003;15344;52.342;-1.290;2023-09-18T05:23:35;1;1;
28026;PMS5003;15344;52.342;-1.290;2023-09-18T05:26:00;0;0;
28026;PMS5003;15344;52.342;-1.290;2023-09-18T05:28:25;0;0;
28026;PMS5003;15344;52.342;-1.290;2023-09-18T05:30:50;1;1;
28026;PMS5003;15344;52.342;-1.290;2023-09-18T05:33:15;1;1;
28026;PMS5003;15344;52.342;-1.290;2023-09-18T05:35:41;2;2;
28026;PMS5003;15344;52.342;-1.290;2023-09-18T05:38:06;4;1;
28026;PMS5003;15344;52.342;-1.290;2023-09-18T05:40:31;1;0;
28026;PMS5003;15344;52.342;-1.290;2023-09-18T05:42:56;2;2;
28026;PMS5003;15344;52.342;-1.290;2023-09-18T05:45:21;0;0;
28026;PMS5003;15344;52.342;-1.290;2023-09-18T05:47:47;2;0;
28026;PMS5003;15344;52.342;-1.290;2023-09-18T05:50:12;1;1;
28026;PMS5003;15344;52.342;-1.290;2023-09-18T05:52:36;1;1;
28026;PMS5003;15344;52.342;-1.290;2023-09-18T05:55:02;0;0;
28026;PMS5003;15344;52.342;-1.290;2023-09-18T05:57:27;1;1;
28026;PMS5003;15344;52.342;-1.290;2023-09-18T05:59:52;1;1;
28026;PMS5003;15344;52.342;-1.290;2023-09-18T06:02:17;1;1;
28026;PMS5003;15344;52.342;-1.290;2023-09-18T06:04:42;1;1;
28026;PMS5003;15344;52.342;-1.290;2023-09-18T06:07:07;3;1;
28026;PMS5003;15344;52.342;-1.290;2023-09-18T06:09:33;1;1;
28026;PMS5003;15344;52.342;-1.290;2023-09-18T06:11:58;3;3;
28026;PMS5003;15344;52.342;-1.290;2023-09-18T06:14:23;2;2;
28026;PMS5003;15344;52.342;-1.290;2023-09-18T06:16:48;0;0;
28026;PMS5003;15344;52.342;-1.290;2023-09-18T06:19:13;2;2;
28026;PMS5003;15344;52.342;-1.290;2023-09-18T06:21:38;3;1;
28026;PMS5003;15344;52.342;-1.290;2023-09-18T06:24:04;1;1;
28026;PMS5003;15344;52.342;-1.290;2023-09-18T06:26:29;3;3;
28026;PMS5003;15344;52.342;-1.290;2023-09-18T06:28:54;2;1;
28026;PMS5003;15344;52.342;-1.290;2023-09-18T06:31:19;2;2;
28026;PMS5003;15344;52.342;-1.290;2023-09-18T06:33:44;3;3;
28026;PMS5003;15344;52.342;-1.290;2023-09-18T06:36:09;2;2;
28026;PMS5003;15344;52.342;-1.290;2023-09-18T06:38:35;3;1;
28026;PMS5003;15344;52.342;-1.290;2023-09-18T06:41:00;5;4;
28026;PMS5003;15344;52.342;-1.290;2023-09-18T06:43:25;4;4;
28026;PMS5003;15344;52.342;-1.290;2023-09-18T06:45:50;6;6;
28026;PMS5003;15344;52.342;-1.290;2023-09-18T06:48:15;5;5;
28026;PMS5003;15344;52.342;-1.290;2023-09-18T06:50:41;7;7;
28026;PMS5003;15344;52.342;-1.290;2023-09-18T06:53:07;8;6;
28026;PMS5003;15344;52.342;-1.290;2023-09-18T06:55:32;5;5;
28026;PMS5003;15344;52.342;-1.290;2023-09-18T06:57:57;5;4;
28026;PMS5003;15344;52.342;-1.290;2023-09-18T07:00:22;5;5;
28026;PMS5003;15344;52.342;-1.290;2023-09-18T07:02:48;6;4;
28026;PMS5003;15344;52.342;-1.290;2023-09-18T07:05:13;8;8;
28026;PMS5003;15344;52.342;-1.290;2023-09-18T07:07:38;7;7;
28026;PMS5003;15344;52.342;-1.290;2023-09-18T07:10:03;7;7;
28026;PMS5003;15344;52.342;-1.290;2023-09-18T07:12:28;8;7;
28026;PMS5003;15344;52.342;-1.290;2023-09-18T07:14:53;10;7;
28026;PMS5003;15344;52.342;-1.290;2023-09-18T07:17:19;7;7;
28026;PMS5003;15344;52.342;-1.290;2023-09-18T07:19:44;9;7;
28026;PMS5003;15344;52.342;-1.290;2023-09-18T07:22:09;9;9;
28026;PMS5003;15344;52.342;-1.290;2023-09-18T07:24:35;7;7;
28026;PMS5003;15344;52.342;-1.290;2023-09-18T07:27:00;11;10;
28026;PMS5003;15344;52.342;-1.290;2023-09-18T07:29:25;7;7;
28026;PMS5003;15344;52.342;-1.290;2023-09-18T07:31:50;8;8;
28026;PMS5003;15344;52.342;-1.290;2023-09-18T07:34:15;9;9;
28026;PMS5003;15344;52.342;-1.290;2023-09-18T07:36:40;8;7;
28026;PMS5003;15344;52.342;-1.290;2023-09-18T07:39:05;10;8;
28026;PMS5003;15344;52.342;-1.290;2023-09-18T07:41:31;14;11;
28026;PMS5003;15344;52.342;-1.290;2023-09-18T07:43:56;11;8;
28026;PMS5003;15344;52.342;-1.290;2023-09-18T07:46:21;9;8;
28026;PMS5003;15344;52.342;-1.290;2023-09-18T07:48:46;9;9;
28026;PMS5003;15344;52.342;-1.290;2023-09-18T07:51:12;14;10;
28026;PMS5003;15344;52.342;-1.290;2023-09-18T07:53:37;11;11;
28026;PMS5003;15344;52.342;-1.290;2023-09-18T07:56:02;9;9;
28026;PMS5003;15344;52.342;-1.290;2023-09-18T07:58:28;11;7;
28026;PMS5003;15344;52.342;-1.290;2023-09-18T08:00:53;9;9;
28026;PMS5003;15344;52.342;-1.290;2023-09-18T08:03:18;10;9;
28026;PMS5003;15344;52.342;-1.290;2023-09-18T08:05:43;12;12;
28026;PMS5003;15344;52.342;-1.290;2023-09-18T08:08:08;11;11;
28026;PMS5003;15344;52.342;-1.290;2023-09-18T08:10:36;9;8;
28026;PMS5003;15344;52.342;-1.290;2023-09-18T08:12:59;10;10;
28026;PMS5003;15344;52.342;-1.290;2023-09-18T08:15:24;12;11;
28026;PMS5003;15344;52.342;-1.290;2023-09-18T08:17:50;7;7;
28026;PMS5003;15344;52.342;-1.290;2023-09-18T08:20:15;10;10;
28026;PMS5003;15344;52.342;-1.290;2023-09-18T08:22:40;8;7;
28026;PMS5003;15344;52.342;-1.290;2023-09-18T08:25:05;11;9;
28026;PMS5003;15344;52.342;-1.290;2023-09-18T08:27:30;7;7;
28026;PMS5003;15344;52.342;-1.290;2023-09-18T08:29:56;9;8;
28026;PMS5003;15344;52.342;-1.290;2023-09-18T08:32:22;10;7;
28026;PMS5003;15344;52.342;-1.290;2023-09-18T08:34:47;6;6;
28026;PMS5003;15344;52.342;-1.290;2023-09-18T08:37:13;6;6;
28026;PMS5003;15344;52.342;-1.290;2023-09-18T08:39:39;5;5;
28026;PMS5003;15344;52.342;-1.290;2023-09-18T08:42:05;8;7;
28026;PMS5003;15344;52.342;-1.290;2023-09-18T08:44:31;7;6;
28026;PMS5003;15344;52.342;-1.290;2023-09-18T08:46:56;5;5;
28026;PMS5003;15344;52.342;-1.290;2023-09-18T08:49:22;7;6;
28026;PMS5003;15344;52.342;-1.290;2023-09-18T08:51:48;5;5;
28026;PMS5003;15344;52.342;-1.290;2023-09-18T08:54:15;7;5;
28026;PMS5003;15344;52.342;-1.290;2023-09-18T08:56:40;5;5;
28026;PMS5003;15344;52.342;-1.290;2023-09-18T08:59:05;3;3;
28026;PMS5003;15344;52.342;-1.290;2023-09-18T09:01:31;9;5;
28026;PMS5003;15344;52.342;-1.290;2023-09-18T09:03:57;2;2;
28026;PMS5003;15344;52.342;-1.290;2023-09-18T09:06:23;4;4;
28026;PMS5003;15344;52.342;-1.290;2023-09-18T09:08:49;4;4;
28026;PMS5003;15344;52.342;-1.290;2023-09-18T09:11:15;3;3;
28026;PMS5003;15344;52.342;-1.290;2023-09-18T09:13:40;5;4;
28026;PMS5003;15344;52.342;-1.290;2023-09-18T09:16:06;4;4;
28026;PMS5003;15344;52.342;-1.290;2023-09-18T09:18:32;6;4;
28026;PMS5003;15344;52.342;-1.290;2023-09-18T09:20:58;4;4;
28026;PMS5003;15344;52.342;-1.290;2023-09-18T09:23:24;4;3;
28026;PMS5003;15344;52.342;-1.290;2023-09-18T09:25:49;3;3;
28026;PMS5003;15344;52.342;-1.290;2023-09-18T09:28:15;4;3;
28026;PMS5003;15344;52.342;-1.290;2023-09-18T09:30:41;3;3;
28026;PMS5003;15344;52.342;-1.290;2023-09-18T09:33:06;4;4;
28026;PMS5003;15344;52.342;-1.290;2023-09-18T09:35:33;4;4;
28026;PMS5003;15344;52.342;-1.290;2023-09-18T09:37:58;2;2;
28026;PMS5003;15344;52.342;-1.290;2023-09-18T09:40:24;4;4;
28026;PMS5003;15344;52.342;-1.290;2023-09-18T09:42:51;2;2;
28026;PMS5003;15344;52.342;-1.290;2023-09-18T09:45:15;5;4;
28026;PMS5003;15344;52.342;-1.290;2023-09-18T09:47:41;5;4;
28026;PMS5003;15344;52.342;-1.290;2023-09-18T09:50:07;2;2;
28026;PMS5003;15344;52.342;-1.290;2023-09-18T09:52:33;4;3;
28026;PMS5003;15344;52.342;-1.290;2023-09-18T09:54:58;2;2;
28026;PMS5003;15344;52.342;-1.290;2023-09-18T09:57:24;5;3;
28026;PMS5003;15344;52.342;-1.290;2023-09-18T09:59:50;4;3;
28026;PMS5003;15344;52.342;-1.290;2023-09-18T10:02:16;7;1;
28026;PMS5003;15344;52.342;-1.290;2023-09-18T10:04:42;1;1;
28026;PMS5003;15344;52.342;-1.290;2023-09-18T10:07:08;4;2;
28026;PMS5003;15344;52.342;-1.290;2023-09-18T10:09:33;4;4;
28026;PMS5003;15344;52.342;-1.290;2023-09-18T10:11:58;2;2;
28026;PMS5003;15344;52.342;-1.290;2023-09-18T10:14:27;4;2;
28026;PMS5003;15344;52.342;-1.290;2023-09-18T10:16:49;4;3;
28026;PMS5003;15344;52.342;-1.290;2023-09-18T10:19:14;2;2;
28026;PMS5003;15344;52.342;-1.290;2023-09-18T10:21:40;3;3;
28026;PMS5003;15344;52.342;-1.290;2023-09-18T10:24:04;6;2;
28026;PMS5003;15344;52.342;-1.290;2023-09-18T10:26:28;3;3;
28026;PMS5003;15344;52.342;-1.290;2023-09-18T10:28:53;3;3;
28026;PMS5003;15344;52.342;-1.290;2023-09-18T10:31:18;4;2;
28026;PMS5003;15344;52.342;-1.290;2023-09-18T10:33:43;3;3;
28026;PMS5003;15344;52.342;-1.290;2023-09-18T10:36:08;3;3;
28026;PMS5003;15344;52.342;-1.290;2023-09-18T10:38:33;3;3;
28026;PMS5003;15344;52.342;-1.290;2023-09-18T10:40:58;2;2;
28026;PMS5003;15344;52.342;-1.290;2023-09-18T10:43:23;5;3;
28026;PMS5003;15344;52.342;-1.290;2023-09-18T10:45:48;3;3;
28026;PMS5003;15344;52.342;-1.290;2023-09-18T10:48:14;3;3;
28026;PMS5003;15344;52.342;-1.290;2023-09-18T10:50:39;5;2;
28026;PMS5003;15344;52.342;-1.290;2023-09-18T10:53:03;4;3;
28026;PMS5003;15344;52.342;-1.290;2023-09-18T10:55:28;4;2;
28026;PMS5003;15344;52.342;-1.290;2023-09-18T10:57:55;2;2;
28026;PMS5003;15344;52.342;-1.290;2023-09-18T11:00:20;4;4;
28026;PMS5003;15344;52.342;-1.290;2023-09-18T11:02:44;9;3;
28026;PMS5003;15344;52.342;-1.290;2023-09-18T11:05:09;3;3;
28026;PMS5003;15344;52.342;-1.290;2023-09-18T11:07:34;2;2;
28026;PMS5003;15344;52.342;-1.290;2023-09-18T11:09:59;4;4;
28026;PMS5003;15344;52.342;-1.290;2023-09-18T11:12:41;4;3;
28026;PMS5003;15344;52.342;-1.290;2023-09-18T11:14:50;5;3;
28026;PMS5003;15344;52.342;-1.290;2023-09-18T11:19:40;3;3;
28026;PMS5003;15344;52.342;-1.290;2023-09-18T11:22:07;3;3;
28026;PMS5003;15344;52.342;-1.290;2023-09-18T11:24:29;3;3;
28026;PMS5003;15344;52.342;-1.290;2023-09-18T11:26:55;4;3;
28026;PMS5003;15344;52.342;-1.290;2023-09-18T11:29:21;4;4;
28026;PMS5003;15344;52.342;-1.290;2023-09-18T11:31:46;3;3;
28026;PMS5003;15344;52.342;-1.290;2023-09-18T11:34:11;5;3;
28026;PMS5003;15344;52.342;-1.290;2023-09-18T11:36:35;4;2;
28026;PMS5003;15344;52.342;-1.290;2023-09-18T11:39:00;3;1;
28026;PMS5003;15344;52.342;-1.290;2023-09-18T11:41:26;3;3;
28026;PMS5003;15344;52.342;-1.290;2023-09-18T11:43:50;6;4;
28026;PMS5003;15344;52.342;-1.290;2023-09-18T11:46:18;5;3;
28026;PMS5003;15344;52.342;-1.290;2023-09-18T11:48:40;4;4;
28026;PMS5003;15344;52.342;-1.290;2023-09-18T11:51:05;4;3;
28026;PMS5003;15344;52.342;-1.290;2023-09-18T11:53:33;5;5;
28026;PMS5003;15344;52.342;-1.290;2023-09-18T11:55:55;3;3;
28026;PMS5003;15344;52.342;-1.290;2023-09-18T11:58:20;3;2;
28026;PMS5003;15344;52.342;-1.290;2023-09-18T12:00:45;3;3;
28026;PMS5003;15344;52.342;-1.290;2023-09-18T12:03:14;3;2;
28026;PMS5003;15344;52.342;-1.290;2023-09-18T12:05:36;3;3;
28026;PMS5003;15344;52.342;-1.290;2023-09-18T12:08:01;3;3;
28026;PMS5003;15344;52.342;-1.290;2023-09-18T12:10:26;6;2;
28026;PMS5003;15344;52.342;-1.290;2023-09-18T12:12:51;3;3;
28026;PMS5003;15344;52.342;-1.290;2023-09-18T12:15:16;2;2;
28026;PMS5003;15344;52.342;-1.290;2023-09-18T12:17:41;3;3;
28026;PMS5003;15344;52.342;-1.290;2023-09-18T12:20:06;4;2;
28026;PMS5003;15344;52.342;-1.290;2023-09-18T12:22:31;2;2;
28026;PMS5003;15344;52.342;-1.290;2023-09-18T12:27:21;3;3;
28026;PMS5003;15344;52.342;-1.290;2023-09-18T12:29:46;3;3;
28026;PMS5003;15344;52.342;-1.290;2023-09-18T12:32:11;2;2;
28026;PMS5003;15344;52.342;-1.290;2023-09-18T12:34:36;1;1;
28026;PMS5003;15344;52.342;-1.290;2023-09-18T12:37:01;2;2;
28026;PMS5003;15344;52.342;-1.290;2023-09-18T12:39:31;3;2;
28026;PMS5003;15344;52.342;-1.290;2023-09-18T12:41:51;1;1;
28026;PMS5003;15344;52.342;-1.290;2023-09-18T12:44:16;3;1;
28026;PMS5003;15344;52.342;-1.290;2023-09-18T12:46:42;1;1;
28026;PMS5003;15344;52.342;-1.290;2023-09-18T12:51:32;1;1;
28026;PMS5003;15344;52.342;-1.290;2023-09-18T12:54:00;0;0;
28026;PMS5003;15344;52.342;-1.290;2023-09-18T12:56:22;0;0;
28026;PMS5003;15344;52.342;-1.290;2023-09-18T12:58:47;1;1;
28026;PMS5003;15344;52.342;-1.290;2023-09-18T13:01:12;1;1;
28026;PMS5003;15344;52.342;-1.290;2023-09-18T13:03:41;2;1;
28026;PMS5003;15344;52.342;-1.290;2023-09-18T13:08:27;1;1;
28026;PMS5003;15344;52.342;-1.290;2023-09-18T13:10:52;2;1;
28026;PMS5003;15344;52.342;-1.290;2023-09-18T13:13:18;2;1;
28026;PMS5003;15344;52.342;-1.290;2023-09-18T13:15:42;0;0;
28026;PMS5003;15344;52.342;-1.290;2023-09-18T13:18:09;0;0;
28026;PMS5003;15344;52.342;-1.290;2023-09-18T13:20:32;3;2;
28026;PMS5003;15344;52.342;-1.290;2023-09-18T13:22:58;1;1;
28026;PMS5003;15344;52.342;-1.290;2023-09-18T13:25:23;0;0;
28026;PMS5003;15344;52.342;-1.290;2023-09-18T13:27:48;1;1;
28026;PMS5003;15344;52.342;-1.290;2023-09-18T13:30:13;1;1;
28026;PMS5003;15344;52.342;-1.290;2023-09-18T13:32:38;1;1;
28026;PMS5003;15344;52.342;-1.290;2023-09-18T13:35:03;0;0;
28026;PMS5003;15344;52.342;-1.290;2023-09-18T13:37:28;0;0;
28026;PMS5003;15344;52.342;-1.290;2023-09-18T13:39:53;1;1;
28026;PMS5003;15344;52.342;-1.290;2023-09-18T13:42:18;2;2;
28026;PMS5003;15344;52.342;-1.290;2023-09-18T13:44:43;2;1;
28026;PMS5003;15344;52.342;-1.290;2023-09-18T13:47:08;2;2;
28026;PMS5003;15344;52.342;-1.290;2023-09-18T13:49:33;2;1;
28026;PMS5003;15344;52.342;-1.290;2023-09-18T13:51:58;1;1;
28026;PMS5003;15344;52.342;-1.290;2023-09-18T13:54:23;2;2;
28026;PMS5003;15344;52.342;-1.290;2023-09-18T13:56:48;1;1;
28026;PMS5003;15344;52.342;-1.290;2023-09-18T13:59:13;3;2;
28026;PMS5003;15344;52.342;-1.290;2023-09-18T14:01:38;4;2;
28026;PMS5003;15344;52.342;-1.290;2023-09-18T14:04:03;2;2;
28026;PMS5003;15344;52.342;-1.290;2023-09-18T14:06:28;2;2;
28026;PMS5003;15344;52.342;-1.290;2023-09-18T14:08:53;3;1;
28026;PMS5003;15344;52.342;-1.290;2023-09-18T14:11:18;2;2;
28026;PMS5003;15344;52.342;-1.290;2023-09-18T14:13:44;2;2;
28026;PMS5003;15344;52.342;-1.290;2023-09-18T14:16:09;1;1;
28026;PMS5003;15344;52.342;-1.290;2023-09-18T14:18:34;2;1;
28026;PMS5003;15344;52.342;-1.290;2023-09-18T14:20:59;3;2;
28026;PMS5003;15344;52.342;-1.290;2023-09-18T14:23:24;1;1;
28026;PMS5003;15344;52.342;-1.290;2023-09-18T14:25:49;1;0;
28026;PMS5003;15344;52.342;-1.290;2023-09-18T14:28:14;2;1;
28026;PMS5003;15344;52.342;-1.290;2023-09-18T14:30:39;2;2;
28026;PMS5003;15344;52.342;-1.290;2023-09-18T14:33:04;4;2;
28026;PMS5003;15344;52.342;-1.290;2023-09-18T14:35:29;2;0;
28026;PMS5003;15344;52.342;-1.290;2023-09-18T14:37:54;0;0;
28026;PMS5003;15344;52.342;-1.290;2023-09-18T14:40:19;0;0;
28026;PMS5003;15344;52.342;-1.290;2023-09-18T14:42:44;0;0;
28026;PMS5003;15344;52.342;-1.290;2023-09-18T14:45:10;1;0;
28026;PMS5003;15344;52.342;-1.290;2023-09-18T14:47:34;0;0;
28026;PMS5003;15344;52.342;-1.290;2023-09-18T14:50:00;1;0;
28026;PMS5003;15344;52.342;-1.290;2023-09-18T14:52:25;0;0;
28026;PMS5003;15344;52.342;-1.290;2023-09-18T14:54:50;1;1;
28026;PMS5003;15344;52.342;-1.290;2023-09-18T14:57:15;0;0;
28026;PMS5003;15344;52.342;-1.290;2023-09-18T14:59:40;0;0;
28026;PMS5003;15344;52.342;-1.290;2023-09-18T15:02:05;0;0;
28026;PMS5003;15344;52.342;-1.290;2023-09-18T15:04:31;0;0;
28026;PMS5003;15344;52.342;-1.290;2023-09-18T15:06:55;1;1;
28026;PMS5003;15344;52.342;-1.290;2023-09-18T15:09:20;2;2;
28026;PMS5003;15344;52.342;-1.290;2023-09-18T15:11:46;1;1;
28026;PMS5003;15344;52.342;-1.290;2023-09-18T15:14:11;1;1;
28026;PMS5003;15344;52.342;-1.290;2023-09-18T15:16:36;1;1;
28026;PMS5003;15344;52.342;-1.290;2023-09-18T15:19:01;0;0;
28026;PMS5003;15344;52.342;-1.290;2023-09-18T15:21:26;0;0;
28026;PMS5003;15344;52.342;-1.290;2023-09-18T15:23:51;1;1;
28026;PMS5003;15344;52.342;-1.290;2023-09-18T15:26:16;1;0;
28026;PMS5003;15344;52.342;-1.290;2023-09-18T15:28:42;0;0;
28026;PMS5003;15344;52.342;-1.290;2023-09-18T15:31:07;1;1;
28026;PMS5003;15344;52.342;-1.290;2023-09-18T15:33:32;1;1;
28026;PMS5003;15344;52.342;-1.290;2023-09-18T15:35:57;4;1;
28026;PMS5003;15344;52.342;-1.290;2023-09-18T15:38:22;1;1;
28026;PMS5003;15344;52.342;-1.290;2023-09-18T15:40:48;3;1;
28026;PMS5003;15344;52.342;-1.290;2023-09-18T15:43:13;0;0;
28026;PMS5003;15344;52.342;-1.290;2023-09-18T15:45:38;1;1;
28026;PMS5003;15344;52.342;-1.290;2023-09-18T15:48:03;2;2;
28026;PMS5003;15344;52.342;-1.290;2023-09-18T15:50:28;4;2;
28026;PMS5003;15344;52.342;-1.290;2023-09-18T15:52:53;3;1;
28026;PMS5003;15344;52.342;-1.290;2023-09-18T15:55:18;1;1;
28026;PMS5003;15344;52.342;-1.290;2023-09-18T15:57:43;4;3;
28026;PMS5003;15344;52.342;-1.290;2023-09-18T16:00:09;1;1;
28026;PMS5003;15344;52.342;-1.290;2023-09-18T16:02:34;0;0;
28026;PMS5003;15344;52.342;-1.290;2023-09-18T16:04:59;0;0;
28026;PMS5003;15344;52.342;-1.290;2023-09-18T16:07:25;2;2;
28026;PMS5003;15344;52.342;-1.290;2023-09-18T16:09:49;2;2;
28026;PMS5003;15344;52.342;-1.290;2023-09-18T16:12:14;1;1;
28026;PMS5003;15344;52.342;-1.290;2023-09-18T16:14:40;4;1;
28026;PMS5003;15344;52.342;-1.290;2023-09-18T16:17:05;1;1;
28026;PMS5003;15344;52.342;-1.290;2023-09-18T16:19:30;0;0;
28026;PMS5003;15344;52.342;-1.290;2023-09-18T16:21:55;0;0;
28026;PMS5003;15344;52.342;-1.290;2023-09-18T16:24:20;0;0;